createdAt,value
2023-06-29T00:02:05.093Z,74419.53
2023-06-29T00:04:53.019Z,74497.00
2023-06-29T00:07:38.004Z,74445.38
2023-06-29T00:10:18.950Z,74472.97
2023-06-29T00:13:02.311Z,74482.09
2023-06-29T00:15:44.427Z,74406.19
2023-06-29T00:18:30.056Z,74497.31
2023-06-29T00:21:16.174Z,74532.22
2023-06-29T00:23:54.860Z,74305.50
2023-06-29T00:26:35.704Z,74380.13
2023-06-29T00:29:16.211Z,74465.72
2023-06-29T00:31:55.748Z,74480.25
2023-06-29T00:34:44.068Z,74455.34
2023-06-29T00:37:33.187Z,74489.44
2023-06-29T00:40:21.039Z,74454.19
2023-06-29T00:43:06.811Z,74418.09
2023-06-29T00:45:44.956Z,74383.78
2023-06-29T00:48:27.232Z,74223.31
2023-06-29T00:51:09.664Z,74279.06
2023-06-29T00:53:50.929Z,74261.19
2023-06-29T00:56:26.652Z,74246.34
2023-06-29T00:59:09.174Z,74267.56
2023-06-29T01:01:50.717Z,74422.91
2023-06-29T01:04:34.812Z,74376.44
2023-06-29T01:07:46.998Z,74473.28
2023-06-29T01:10:25.445Z,74466.00
2023-06-29T01:13:16.607Z,74327.34
2023-06-29T01:15:58.554Z,74324.00
2023-06-29T01:18:39.705Z,74381.03
2023-06-29T01:21:21.937Z,74322.75
2023-06-29T01:24:07.682Z,74285.78
2023-06-29T01:26:49.982Z,74292.41
2023-06-29T01:29:38.140Z,74336.13
2023-06-29T01:32:23.708Z,74281.81
2023-06-29T01:35:09.123Z,74281.19
2023-06-29T01:37:58.425Z,74285.47
2023-06-29T01:40:47.965Z,74263.31
2023-06-29T01:43:29.488Z,74270.91
2023-06-29T01:46:15.906Z,74287.56
2023-06-29T01:48:54.914Z,74307.28
2023-06-29T01:51:40.970Z,74318.22
2023-06-29T01:54:22.199Z,74341.25
2023-06-29T01:57:02.932Z,74297.00
2023-06-29T01:59:43.805Z,74319.69
2023-06-29T02:02:26.092Z,74269.38
2023-06-29T02:05:07.972Z,74276.03
2023-06-29T02:07:51.389Z,74269.38
2023-06-29T02:10:41.415Z,74245.13
2023-06-29T02:13:19.425Z,74250.63
2023-06-29T02:16:00.846Z,74252.41
2023-06-29T02:18:42.040Z,74234.19
2023-06-29T02:21:17.230Z,74185.72
2023-06-29T02:24:03.837Z,74204.19
2023-06-29T02:26:47.761Z,74195.66
2023-06-29T02:29:41.741Z,74227.53
2023-06-29T02:32:22.506Z,74225.13
2023-06-29T02:35:03.782Z,74225.06
2023-06-29T02:37:45.833Z,74187.50
2023-06-29T02:40:21.287Z,74141.09
2023-06-29T02:43:07.993Z,74086.28
2023-06-29T02:45:48.927Z,74107.81
2023-06-29T02:48:29.070Z,74091.47
2023-06-29T02:51:15.997Z,74094.81
2023-06-29T02:53:59.475Z,74065.69
2023-06-29T02:56:43.146Z,74099.59
2023-06-29T02:59:31.648Z,74119.91
2023-06-29T03:02:20.643Z,74102.63
2023-06-29T03:05:04.621Z,74075.38
2023-06-29T03:07:46.230Z,74101.13
2023-06-29T03:10:23.971Z,74085.09
2023-06-29T03:12:59.997Z,74087.50
2023-06-29T03:15:38.409Z,74104.47
2023-06-29T03:18:32.328Z,74085.97
2023-06-29T03:21:18.409Z,74101.44
2023-06-29T03:24:03.959Z,74095.06
2023-06-29T03:26:53.902Z,74043.28
2023-06-29T03:29:39.902Z,74075.72
2023-06-29T03:32:15.158Z,74082.97
2023-06-29T03:34:52.791Z,74135.06
2023-06-29T03:37:31.959Z,74148.72
2023-06-29T03:40:14.662Z,74124.19
2023-06-29T03:42:51.029Z,74104.78
2023-06-29T03:45:33.259Z,74184.47
2023-06-29T03:48:12.433Z,74191.44
2023-06-29T03:50:51.081Z,74198.41
2023-06-29T03:53:32.083Z,74358.91
2023-06-29T03:56:17.598Z,74323.06
2023-06-29T03:58:59.174Z,74303.94
2023-06-29T04:01:34.574Z,74193.28
2023-06-29T04:04:26.996Z,74264.84
2023-06-29T04:07:18.967Z,74261.47
2023-06-29T04:09:57.134Z,74365.56
2023-06-29T04:12:35.756Z,74305.44
2023-06-29T04:15:17.026Z,74294.81
2023-06-29T04:18:08.819Z,74380.41
2023-06-29T04:20:50.202Z,74487.28
2023-06-29T04:23:43.873Z,74459.66
2023-06-29T04:26:42.213Z,74451.44
2023-06-29T04:29:23.122Z,74516.16
2023-06-29T04:32:03.193Z,74577.78
2023-06-29T04:34:55.662Z,74568.97
2023-06-29T04:37:46.030Z,74675.03
2023-06-29T04:40:27.097Z,74747.38
2023-06-29T04:43:12.638Z,74765.91
2023-06-29T04:46:05.496Z,74816.72
2023-06-29T04:48:50.236Z,74940.91
2023-06-29T04:51:40.857Z,74909.78
2023-06-29T04:54:37.734Z,75021.72
2023-06-29T04:57:16.951Z,75040.16
2023-06-29T05:00:02.243Z,75085.25
2023-06-29T05:02:37.579Z,75046.84
2023-06-29T05:05:20.203Z,75062.97
2023-06-29T05:07:58.176Z,75102.53
2023-06-29T05:10:41.847Z,75191.56
2023-06-29T05:13:33.934Z,75150.78
2023-06-29T05:16:22.849Z,75233.34
2023-06-29T05:19:05.064Z,75199.47
2023-06-29T05:21:53.070Z,75240.03
2023-06-29T05:24:32.698Z,75368.13
2023-06-29T05:27:08.905Z,75314.28
2023-06-29T05:29:46.599Z,75279.53
2023-06-29T05:32:22.050Z,75405.59
2023-06-29T05:35:05.740Z,75409.88
2023-06-29T05:37:39.420Z,75464.56
2023-06-29T05:40:11.203Z,75407.19
2023-06-29T05:42:57.920Z,75307.13
2023-06-29T05:45:40.570Z,75441.63
2023-06-29T05:48:16.033Z,75331.38
2023-06-29T05:50:57.482Z,75341.28
2023-06-29T05:53:30.466Z,75454.16
2023-06-29T05:56:11.341Z,75473.97
2023-06-29T05:58:52.454Z,75516.09
2023-06-29T06:01:30.038Z,75452.16
2023-06-29T06:04:07.594Z,75525.44
2023-06-29T06:06:52.298Z,75528.06
2023-06-29T06:09:30.149Z,75455.75
2023-06-29T06:12:24.948Z,75504.50
2023-06-29T06:15:03.240Z,75353.13
2023-06-29T06:17:35.546Z,75541.13
2023-06-29T06:20:19.469Z,75601.31
2023-06-29T06:23:07.703Z,75550.88
2023-06-29T06:25:43.339Z,75498.56
2023-06-29T06:28:16.095Z,75514.25
2023-06-29T06:31:01.826Z,75529.25
2023-06-29T06:33:51.210Z,75524.66
2023-06-29T06:36:33.951Z,75555.16
2023-06-29T06:39:19.428Z,75514.25
2023-06-29T06:41:57.831Z,75623.75
2023-06-29T06:44:35.195Z,75620.09
2023-06-29T06:47:20.748Z,75612.75
2023-06-29T06:49:59.709Z,75728.75
2023-06-29T06:52:43.072Z,75607.25
2023-06-29T06:55:18.442Z,75650.59
2023-06-29T06:58:01.899Z,75609.88
2023-06-29T07:00:43.781Z,75761.44
2023-06-29T07:03:20.542Z,75686.50
2023-06-29T07:05:56.855Z,75687.88
2023-06-29T07:08:36.890Z,75700.31
2023-06-29T07:11:14.776Z,75642.66
2023-06-29T07:13:53.400Z,75718.41
2023-06-29T07:16:37.385Z,75677.69
2023-06-29T07:24:55.271Z,75834.78
2023-06-29T07:27:45.661Z,75797.88
2023-06-29T07:30:25.586Z,75875.13
2023-06-29T07:33:08.771Z,75864.75
2023-06-29T07:35:55.059Z,75853.53
2023-06-29T07:38:26.456Z,75870.03
2023-06-29T07:41:01.567Z,75898.16
2023-06-29T07:43:51.144Z,75756.53
2023-06-29T07:46:24.247Z,75876.75
2023-06-29T07:48:57.824Z,75932.28
2023-06-29T07:51:34.647Z,75952.00
2023-06-29T07:54:16.321Z,75881.66
2023-06-29T07:59:35.657Z,75902.31
2023-06-29T08:02:29.002Z,75906.34
2023-06-29T08:07:47.116Z,75706.69
2023-06-29T08:10:28.157Z,75778.31
2023-06-29T08:13:12.176Z,75801.78
2023-06-29T08:15:49.785Z,75761.06
2023-06-29T08:18:37.413Z,75646.78
2023-06-29T08:21:11.849Z,75578.13
2023-06-29T08:23:47.806Z,75634.31
2023-06-29T08:26:43.099Z,75765.34
2023-06-29T08:29:19.283Z,75754.09
2023-06-29T08:32:02.306Z,75750.66
2023-06-29T08:34:48.647Z,75662.81
2023-06-29T08:37:21.472Z,75576.03
2023-06-29T08:40:02.208Z,75597.66
2023-06-29T08:42:46.976Z,75619.63
2023-06-29T08:45:25.909Z,75776.97
2023-06-29T08:51:06.615Z,75727.44
2023-06-29T08:53:46.858Z,75743.97
2023-06-29T08:56:27.405Z,75735.75
2023-06-29T08:59:05.481Z,75763.66
2023-06-29T09:01:51.266Z,75748.56
2023-06-29T09:04:29.764Z,75684.06
2023-06-29T09:07:08.851Z,75610.31
2023-06-29T09:12:41.566Z,75737.00
2023-06-29T09:15:53.624Z,75659.16
2023-06-29T09:18:44.474Z,75702.38
2023-06-29T09:21:37.068Z,75706.41
2023-06-29T09:24:17.252Z,75716.19
2023-06-29T09:30:09.681Z,75746.53
2023-06-29T09:32:57.752Z,75710.09
2023-06-29T09:35:36.164Z,75729.63
2023-06-29T09:38:17.580Z,75722.91
2023-06-29T09:41:00.848Z,75696.63
2023-06-29T09:43:34.351Z,75670.97
2023-06-29T09:46:25.516Z,75766.31
2023-06-29T09:52:06.172Z,75697.50
2023-06-29T09:54:39.009Z,75537.00
2023-06-29T09:57:15.050Z,75672.19
2023-06-29T10:00:00.736Z,75635.34
2023-06-29T10:02:39.874Z,75677.97
2023-06-29T10:05:19.978Z,75585.09
2023-06-29T10:08:14.620Z,75611.81
2023-06-29T10:11:15.987Z,75729.28
2023-06-29T10:14:07.475Z,75776.69
2023-06-29T10:16:57.587Z,75793.53
2023-06-29T10:19:44.398Z,75760.44
2023-06-29T10:22:33.583Z,75829.66
2023-06-29T10:25:30.329Z,75884.91
2023-06-29T10:28:07.286Z,75977.91
2023-06-29T10:30:58.233Z,76029.06
2023-06-29T10:33:48.084Z,76021.72
2023-06-29T10:36:37.827Z,75962.25
2023-06-29T10:39:45.492Z,76005.69
2023-06-29T10:42:23.592Z,76052.94
2023-06-29T10:45:07.198Z,76034.19
2023-06-29T10:47:43.107Z,75972.78
2023-06-29T10:50:19.032Z,76024.06
2023-06-29T10:52:51.278Z,76007.28
2023-06-29T10:55:41.315Z,76013.16
2023-06-29T10:58:35.683Z,76026.00
2023-06-29T11:01:27.366Z,76163.75
2023-06-29T11:04:05.326Z,76121.38
2023-06-29T11:06:54.525Z,76102.53
2023-06-29T11:09:35.808Z,75944.88
2023-06-29T11:12:15.747Z,75925.06
2023-06-29T11:17:54.394Z,76040.69
2023-06-29T11:20:47.679Z,76038.50
2023-06-29T11:23:37.080Z,75996.03
2023-06-29T11:26:10.393Z,75932.28
2023-06-29T11:28:51.338Z,76023.56
2023-06-29T11:31:44.687Z,76039.72
2023-06-29T11:34:25.973Z,75981.56
2023-06-29T11:37:24.788Z,75980.13
2023-06-29T11:40:17.454Z,75988.91
2023-06-29T11:43:04.013Z,76064.56
2023-06-29T11:45:52.263Z,76010.34
2023-06-29T11:48:35.009Z,76116.00
2023-06-29T11:51:11.423Z,76089.28
2023-06-29T11:53:51.966Z,76064.19
2023-06-29T11:56:41.711Z,76124.81
2023-06-29T11:59:23.859Z,76155.41
2023-06-29T12:02:09.231Z,76142.91
2023-06-29T12:04:57.894Z,76143.16
2023-06-29T12:07:50.567Z,76249.13
2023-06-29T12:10:33.272Z,76298.13
2023-06-29T12:13:12.516Z,76304.59
2023-06-29T12:18:39.613Z,76364.53
2023-06-29T12:21:27.342Z,76334.66
2023-06-29T12:24:04.256Z,76349.84
2023-06-29T12:26:41.582Z,76297.88
2023-06-29T12:29:16.801Z,76425.94
2023-06-29T12:31:59.067Z,76444.31
2023-06-29T12:34:43.407Z,76440.03
2023-06-29T12:37:20.372Z,76326.66
2023-06-29T12:39:56.485Z,76344.06
2023-06-29T12:45:13.351Z,76539.97
2023-06-29T12:48:05.049Z,76462.72
2023-06-29T12:50:41.332Z,76372.28
2023-06-29T12:53:20.696Z,76372.91
2023-06-29T12:56:00.010Z,76360.97
2023-06-29T12:58:37.944Z,76271.41
2023-06-29T13:01:19.206Z,76407.53
2023-06-29T13:03:55.344Z,76391.59
2023-06-29T13:06:33.603Z,76364.03
2023-06-29T13:09:09.216Z,76372.91
2023-06-29T13:11:48.202Z,76344.91
2023-06-29T13:14:24.246Z,76313.19
2023-06-29T13:17:01.542Z,76472.78
2023-06-29T13:19:42.644Z,76344.06
2023-06-29T13:22:34.773Z,76259.88
2023-06-29T13:25:20.346Z,76224.00
2023-06-29T13:27:58.180Z,76210.88
2023-06-29T13:30:29.701Z,76276.69
2023-06-29T13:33:22.440Z,76342.00
2023-06-29T13:36:03.713Z,76298.72
2023-06-29T13:38:36.500Z,76257.69
2023-06-29T13:41:08.225Z,76242.38
2023-06-29T13:43:52.882Z,76261.97
2023-06-29T13:46:25.858Z,76281.97
2023-06-29T13:49:09.910Z,76243.97
2023-06-29T13:51:49.411Z,76238.09
2023-06-29T13:54:35.073Z,76272.50
2023-06-29T13:57:11.000Z,76089.91
2023-06-29T13:59:52.951Z,76117.47
2023-06-29T14:02:31.604Z,76145.63
2023-06-29T14:05:07.258Z,76133.38
2023-06-29T14:07:48.772Z,76141.06
2023-06-29T14:10:24.849Z,76216.63
2023-06-29T14:13:04.719Z,76182.34
2023-06-29T14:15:42.041Z,76155.03
2023-06-29T14:18:17.866Z,76273.03
2023-06-29T14:23:52.085Z,76346.88
2023-06-29T14:26:30.492Z,76340.78
2023-06-29T14:29:16.588Z,76318.72
2023-06-29T14:31:50.689Z,76230.13
2023-06-29T14:34:36.414Z,76347.75
2023-06-29T14:40:08.685Z,76314.41
2023-06-29T14:42:44.959Z,76381.81
2023-06-29T14:45:29.360Z,76394.94
2023-06-29T14:48:01.905Z,76378.41
2023-06-29T14:50:34.514Z,76380.59
2023-06-29T14:53:07.036Z,76318.34
2023-06-29T14:55:44.078Z,76359.75
2023-06-29T14:58:25.491Z,76364.53
2023-06-29T15:01:00.129Z,76350.53
2023-06-29T15:03:35.415Z,76340.41
2023-06-29T15:06:13.780Z,76264.41
2023-06-29T15:08:54.188Z,76275.19
2023-06-29T15:11:24.541Z,76286.47
2023-06-29T15:14:04.950Z,76280.09
2023-06-29T15:16:35.255Z,76293.84
2023-06-29T15:19:16.744Z,76334.88
2023-06-29T15:21:50.406Z,76194.59
2023-06-29T15:24:22.608Z,76168.63
2023-06-29T15:27:05.182Z,76314.66
2023-06-29T15:29:35.233Z,76321.16
2023-06-29T15:32:19.134Z,76330.97
2023-06-29T15:34:50.161Z,76163.00
2023-06-29T15:37:25.496Z,76313.81
2023-06-29T15:40:03.723Z,76322.03
2023-06-29T15:42:46.773Z,76342.56
2023-06-29T15:45:22.322Z,76380.00
2023-06-29T15:48:02.521Z,76274.22
2023-06-29T15:50:32.920Z,76306.69
2023-06-29T15:53:11.202Z,76275.81
2023-06-29T15:55:47.381Z,76303.03
2023-06-29T15:58:25.228Z,76176.59
2023-06-29T16:01:00.772Z,76237.84
2023-06-29T16:03:33.569Z,76269.06
2023-06-29T16:06:09.085Z,76209.69
2023-06-29T16:08:41.737Z,76269.94
2023-06-29T16:11:27.804Z,76341.00
2023-06-29T16:14:00.716Z,76300.94
2023-06-29T16:16:38.307Z,76319.31
2023-06-29T16:19:19.031Z,76424.69
2023-06-29T16:22:19.490Z,76448.00
2023-06-29T16:24:52.254Z,76462.72
2023-06-29T16:27:38.289Z,76518.19
2023-06-29T16:30:13.694Z,76546.69
2023-06-29T16:32:50.037Z,76460.53
2023-06-29T16:35:24.756Z,76462.13
2023-06-29T16:38:04.635Z,76466.66
2023-06-29T16:40:42.559Z,76480.78
2023-06-29T16:43:18.372Z,76574.28
2023-06-29T16:45:56.735Z,76803.78
2023-06-29T16:48:33.357Z,76792.75
2023-06-29T16:51:17.181Z,76601.28
2023-06-29T16:53:49.742Z,76637.78
2023-06-29T16:56:33.099Z,76385.91
2023-06-29T16:59:10.365Z,76422.88
2023-06-29T17:01:48.756Z,76398.00
2023-06-29T17:04:27.689Z,76286.47
2023-06-29T17:07:03.201Z,76228.91
2023-06-29T17:09:36.164Z,76184.81
2023-06-29T17:12:09.800Z,76176.59
2023-06-29T17:14:42.696Z,76140.34
2023-06-29T17:17:15.994Z,76179.06
2023-06-29T17:20:12.113Z,76268.47
2023-06-29T17:22:55.756Z,76363.06
2023-06-29T17:25:34.003Z,76360.63
2023-06-29T17:28:11.454Z,76315.88
2023-06-29T17:30:56.697Z,76239.31
2023-06-29T17:33:53.392Z,76209.06
2023-06-29T17:36:32.396Z,76128.47
2023-06-29T17:39:12.331Z,76081.69
2023-06-29T17:41:54.169Z,75978.91
2023-06-29T17:44:32.228Z,76040.31
2023-06-29T17:47:04.649Z,75980.63
2023-06-29T17:49:39.808Z,76032.38
2023-06-29T17:52:21.125Z,75912.59
2023-06-29T17:54:58.914Z,75906.97
2023-06-29T17:57:38.612Z,75862.06
2023-06-29T18:00:24.617Z,75809.84
2023-06-29T18:03:02.957Z,75816.22
2023-06-29T18:05:35.729Z,75796.34
2023-06-29T18:08:16.177Z,75742.22
2023-06-29T18:10:57.013Z,75711.28
2023-06-29T18:13:32.737Z,75617.03
2023-06-29T18:16:10.730Z,75659.34
2023-06-29T18:19:07.167Z,75493.84
2023-06-29T18:21:39.671Z,75533.28
2023-06-29T18:24:17.657Z,75508.25
2023-06-29T18:26:50.281Z,75528.66
2023-06-29T18:29:25.938Z,75446.25
2023-06-29T18:32:07.414Z,75513.41
2023-06-29T18:34:53.559Z,75474.56
2023-06-29T18:37:33.644Z,75522.19
2023-06-29T18:40:06.931Z,75458.25
2023-06-29T18:42:43.166Z,75474.06
2023-06-29T18:45:21.322Z,75411.72
2023-06-29T18:48:00.251Z,75419.72
2023-06-29T18:50:33.374Z,75392.28
2023-06-29T18:53:10.965Z,75405.72
2023-06-29T18:55:44.072Z,75324.13
2023-06-29T18:58:22.373Z,75315.41
2023-06-29T19:00:52.348Z,75272.72
2023-06-29T19:03:29.172Z,75256.31
2023-06-29T19:06:04.918Z,75220.00
2023-06-29T19:08:39.699Z,75212.00
2023-06-29T19:11:18.354Z,75199.56
2023-06-29T19:13:59.586Z,75184.84
2023-06-29T19:16:36.117Z,75170.63
2023-06-29T19:19:17.448Z,75162.63
2023-06-29T19:21:55.548Z,75145.91
2023-06-29T19:24:25.826Z,75132.19
2023-06-29T19:26:56.241Z,75110.22
2023-06-29T19:32:27.266Z,75105.94
2023-06-29T19:35:11.732Z,75050.22
2023-06-29T19:37:48.384Z,75074.00
2023-06-29T19:40:35.469Z,75097.16
2023-06-29T19:43:23.418Z,75114.13
2023-06-29T19:46:15.340Z,75147.38
2023-06-29T19:48:59.401Z,75120.03
2023-06-29T19:51:46.164Z,75148.00
2023-06-29T19:54:21.246Z,75142.88
2023-06-29T19:56:59.359Z,75148.94
2023-06-29T19:59:34.324Z,75087.41
2023-06-29T20:02:12.212Z,75033.09
2023-06-29T20:04:47.601Z,75032.84
2023-06-29T20:10:25.827Z,75035.00
2023-06-29T20:13:11.420Z,75063.31
2023-06-29T20:15:46.817Z,75046.56
2023-06-29T20:18:26.573Z,75020.66
2023-06-29T20:21:12.943Z,75048.41
2023-06-29T20:24:13.992Z,75019.78
2023-06-29T20:26:52.000Z,74976.81
2023-06-29T20:29:40.020Z,74995.75
2023-06-29T20:32:26.235Z,74971.66
2023-06-29T20:35:09.599Z,74989.91
2023-06-29T20:37:53.136Z,75009.16
2023-06-29T20:40:38.967Z,74993.22
2023-06-29T20:43:23.758Z,74913.22
2023-06-29T20:46:00.382Z,74864.81
2023-06-29T20:48:55.597Z,74867.59
2023-06-29T20:51:40.417Z,74849.31
2023-06-29T20:54:19.230Z,74836.25
2023-06-29T20:57:02.895Z,74844.09
2023-06-29T20:59:41.182Z,74795.44
2023-06-29T21:05:15.823Z,74831.66
2023-06-29T21:08:17.505Z,74841.13
2023-06-29T21:11:01.952Z,74807.34
2023-06-29T21:13:48.524Z,74737.34
2023-06-29T21:16:28.343Z,74769.00
2023-06-29T21:19:16.885Z,74742.25
2023-06-29T21:21:57.496Z,74713.03
2023-06-29T21:24:43.043Z,74744.34
2023-06-29T21:27:23.951Z,74726.09
2023-06-29T21:30:06.176Z,74725.56
2023-06-29T21:32:51.843Z,74696.03
2023-06-29T21:35:27.303Z,74717.00
2023-06-29T21:38:07.041Z,74703.59
2023-06-29T21:40:53.009Z,74707.56
2023-06-29T21:43:38.926Z,74686.91
2023-06-29T21:46:24.856Z,74685.91
2023-06-29T21:49:03.266Z,74661.66
2023-06-29T21:51:43.965Z,74648.28
2023-06-29T21:54:27.334Z,74658.34
2023-06-29T21:57:03.030Z,74634.91
2023-06-29T21:59:41.196Z,74613.59
2023-06-29T22:02:22.508Z,74593.91
2023-06-29T22:05:18.160Z,74616.06
2023-06-29T22:07:56.049Z,74592.69
2023-06-29T22:10:42.877Z,74547.72
2023-06-29T22:13:26.808Z,74596.06
2023-06-29T22:16:08.869Z,74595.69
2023-06-29T22:18:53.155Z,74591.78
2023-06-29T22:21:36.745Z,74570.50
2023-06-29T22:24:17.891Z,74570.84
2023-06-29T22:26:58.122Z,74532.81
2023-06-29T22:29:36.229Z,74540.09
2023-06-29T22:32:28.058Z,74545.28
2023-06-29T22:35:10.106Z,74551.91
2023-06-29T22:37:55.550Z,74577.84
2023-06-29T22:40:38.943Z,74578.13
2023-06-29T22:43:25.862Z,74591.50
2023-06-29T22:46:17.510Z,74589.97
2023-06-29T22:49:03.402Z,74579.34
2023-06-29T22:51:55.124Z,74581.16
2023-06-29T22:54:35.993Z,74530.38
2023-06-29T22:57:25.036Z,74523.44
2023-06-29T23:00:11.442Z,74551.63
2023-06-29T23:02:49.624Z,74552.53
2023-06-29T23:05:25.108Z,74564.75
2023-06-29T23:08:22.985Z,74520.34
2023-06-29T23:10:56.255Z,74573.59
2023-06-29T23:13:42.898Z,74547.72
2023-06-29T23:16:28.554Z,74522.81
2023-06-29T23:19:14.799Z,74549.84
2023-06-29T23:21:55.753Z,74546.16
2023-06-29T23:24:41.896Z,74494.84
2023-06-29T23:27:27.503Z,74480.03
2023-06-29T23:30:13.809Z,74476.03
2023-06-29T23:32:52.693Z,74467.22
2023-06-29T23:35:33.134Z,74459.38
2023-06-29T23:38:18.735Z,74431.41
2023-06-29T23:41:05.248Z,74453.88
2023-06-29T23:44:05.038Z,74479.34
2023-06-29T23:46:54.425Z,74457.81
2023-06-29T23:49:35.028Z,74403.47
2023-06-29T23:52:21.586Z,74401.03
2023-06-29T23:54:59.276Z,74418.34
2023-06-29T23:57:39.916Z,74418.06
